Time;durP1;ratioP1;P1;durP2;ratioP2;P2;SDS_P1;SDS_P2;PMS_P1;PMS_P2;Temp;Humidity;BMP_temperature;BMP_pressure;BME280_temperature;BME280_humidity;BME280_pressure;Samples;Min_cycle;Max_cycle;Signal;HPM_P1;HPM_P2
2022/03/03 00:00:00;;;;;;;35.40;21.48;;;;;;;10.73;34.27;99871.22;343134;28;1554;-65
2022/03/03 00:00:14;;;;;;;36.50;20.52;;;;;;;10.83;34.30;99868.34;342296;28;1050;-66
2022/03/03 00:00:26;;;;;;;34.35;19.27;;;;;;;10.93;34.08;99872.38;342829;28;1304;-66
2022/03/03 00:00:38;;;;;;;31.98;18.88;;;;;;;11.01;33.94;99867.78;343381;28;1938;-64
2022/03/03 00:00:50;;;;;;;31.27;18.77;;;;;;;11.06;33.75;99873.69;343335;28;1283;-66
2022/03/03 00:01:03;;;;;;;31.13;19.13;;;;;;;11.13;33.77;99867.41;343256;28;1255;-65
2022/03/03 00:01:15;;;;;;;33.72;19.52;;;;;;;11.14;33.92;99866.50;343450;28;1082;-65
2022/03/03 00:01:27;;;;;;;33.97;19.63;;;;;;;11.13;33.74;99877.81;343079;28;1302;-66
2022/03/03 00:01:40;;;;;;;34.47;19.73;;;;;;;11.11;33.95;99869.22;343284;28;1176;-65
2022/03/03 00:01:52;;;;;;;32.13;18.98;;;;;;;11.04;33.93;99865.06;343374;28;1055;-66
2022/03/03 00:02:05;;;;;;;32.17;18.40;;;;;;;11.10;34.10;99867.50;343267;28;1356;-65
2022/03/03 00:02:17;;;;;;;33.10;18.90;;;;;;;11.15;33.99;99873.41;343259;28;1287;-66
2022/03/03 00:02:30;;;;;;;33.22;19.58;;;;;;;11.20;33.65;99871.50;343890;28;1701;-65
2022/03/03 00:02:43;;;;;;;32.35;20.38;;;;;;;11.20;33.74;99871.50;342177;28;1222;-65
2022/03/03 00:02:55;;;;;;;32.60;21.13;;;;;;;11.24;33.51;99863.63;342141;28;1178;-65
2022/03/03 00:03:07;;;;;;;31.98;20.63;;;;;;;11.28;33.68;99866.06;341846;28;1843;-65
2022/03/03 00:03:20;;;;;;;30.17;18.98;;;;;;;11.29;33.68;99866.91;343388;28;1785;-65
2022/03/03 00:03:32;;;;;;;29.35;18.20;;;;;;;11.28;33.86;99871.25;343306;28;1097;-65
2022/03/03 00:03:44;;;;;;;30.92;18.83;;;;;;;11.31;33.52;99870.34;341931;28;1051;-65
2022/03/03 00:03:56;;;;;;;31.50;19.15;;;;;;;11.30;33.46;99866.84;341994;28;1248;-65
2022/03/03 00:04:08;;;;;;;34.15;19.55;;;;;;;11.32;33.59;99870.25;341958;28;1043;-66
2022/03/03 00:04:20;;;;;;;32.97;19.58;;;;;;;11.31;33.51;99863.38;342056;28;1087;-65
2022/03/03 00:04:32;;;;;;;33.13;20.52;;;;;;;11.12;34.13;99868.28;342140;28;1104;-65
2022/03/03 00:04:44;;;;;;;32.60;20.60;;;;;;;11.02;34.01;99864.28;342349;28;1083;-65
2022/03/03 00:04:56;;;;;;;35.88;20.65;;;;;;;10.94;34.31;99872.31;342099;28;1218;-65
2022/03/03 00:05:10;;;;;;;35.55;20.02;;;;;;;10.82;34.56;99869.25;341997;28;1841;-65
2022/03/03 00:05:24;;;;;;;32.80;20.33;;;;;;;10.81;34.67;99875.34;342420;28;1613;-64
2022/03/03 00:05:36;;;;;;;32.40;21.13;;;;;;;10.70;34.86;99867.84;340597;29;1035;-65
2022/03/03 00:05:48;;;;;;;31.98;21.25;;;;;;;10.69;34.87;99868.78;340871;28;1387;-66
2022/03/03 00:06:00;;;;;;;33.10;21.33;;;;;;;10.78;34.82;99874.56;342208;28;1272;-65
2022/03/03 00:06:12;;;;;;;33.45;21.10;;;;;;;10.83;34.71;99868.34;341956;28;1307;-65
2022/03/03 00:06:24;;;;;;;34.50;21.73;;;;;;;10.69;35.10;99869.59;342057;28;1219;-65
2022/03/03 00:06:36;;;;;;;34.22;21.05;;;;;;;10.58;35.03;99871.66;341925;28;1023;-66
2022/03/03 00:06:48;;;;;;;34.38;20.38;;;;;;;10.46;35.29;99864.22;341434;28;1611;-65
2022/03/03 00:07:00;;;;;;;33.38;19.60;;;;;;;10.43;35.32;99872.13;342641;28;1962;-66
2022/03/03 00:07:13;;;;;;;34.63;21.05;;;;;;;10.41;35.31;99866.13;343459;28;1078;-65
2022/03/03 00:07:25;;;;;;;36.90;22.92;;;;;;;10.33;35.54;99871.53;343233;28;1374;-66
2022/03/03 00:07:37;;;;;;;37.38;24.20;;;;;;;10.29;35.44;99869.88;343394;28;1116;-65
2022/03/03 00:07:49;;;;;;;39.25;22.98;;;;;;;10.35;35.32;99870.56;343441;28;1051;-65
2022/03/03 00:08:02;;;;;;;37.17;21.35;;;;;;;10.32;35.31;99869.81;343685;28;1192;-66
2022/03/03 00:08:14;;;;;;;34.30;20.38;;;;;;;10.32;35.25;99868.09;343780;28;1118;-65
2022/03/03 00:08:26;;;;;;;34.92;20.40;;;;;;;10.29;35.32;99867.28;343263;28;1179;-65
2022/03/03 00:08:41;;;;;;;35.97;21.23;;;;;;;10.19;35.22;99870.13;343640;28;1153;-65
2022/03/03 00:08:53;;;;;;;36.33;21.13;;;;;;;10.07;35.20;99870.47;343442;28;1095;-65
2022/03/03 00:09:06;;;;;;;34.20;20.02;;;;;;;10.20;35.13;99868.38;341027;28;1331;-66
2022/03/03 00:09:18;;;;;;;34.30;20.40;;;;;;;10.26;35.04;99873.41;340774;29;1317;-66
2022/03/03 00:09:30;;;;;;;34.58;21.33;;;;;;;10.21;34.54;99872.69;340817;29;1406;-66
2022/03/03 00:09:42;;;;;;;37.28;22.38;;;;;;;10.24;34.62;99867.41;340880;29;1080;-65
2022/03/03 00:09:54;;;;;;;39.05;21.63;;;;;;;10.34;34.58;99863.69;340806;29;852;-66
2022/03/03 00:10:08;;;;;;;37.35;20.55;;;;;;;10.35;34.15;99870.56;340953;29;1194;-66
2022/03/03 00:10:20;;;;;;;34.42;19.95;;;;;;;10.29;34.24;99870.72;340940;29;1042;-66
2022/03/03 00:10:32;;;;;;;34.63;20.20;;;;;;;10.37;34.17;99861.00;342229;28;1827;-65
2022/03/03 00:10:44;;;;;;;33.50;20.48;;;;;;;10.30;33.92;99869.88;343061;28;1231;-65
2022/03/03 00:10:58;;;;;;;33.88;21.00;;;;;;;10.29;34.03;99868.13;343591;28;1119;-65
2022/03/03 00:11:10;;;;;;;34.15;21.15;;;;;;;10.24;34.14;99867.41;343673;28;1039;-65
2022/03/03 00:11:22;;;;;;;33.65;20.25;;;;;;;10.25;34.15;99870.84;343374;28;1209;-66
2022/03/03 00:11:34;;;;;;;34.58;19.48;;;;;;;10.22;33.97;99871.78;343787;28;1102;-65
2022/03/03 00:11:48;;;;;;;35.83;19.73;;;;;;;10.22;34.12;99870.94;343778;28;1099;-65
2022/03/03 00:12:00;;;;;;;37.88;20.10;;;;;;;10.19;34.11;99869.28;342996;28;1928;-65
2022/03/03 00:12:12;;;;;;;35.92;19.83;;;;;;;10.16;34.03;99866.75;343702;28;1728;-65
2022/03/03 00:12:25;;;;;;;35.55;19.38;;;;;;;10.13;33.96;99867.69;343139;28;1373;-65
2022/03/03 00:12:38;;;;;;;35.28;20.30;;;;;;;10.11;34.30;99869.47;342959;28;1898;-65
2022/03/03 00:12:50;;;;;;;32.75;20.70;;;;;;;10.07;34.08;99867.84;343589;28;1225;-65
2022/03/03 00:13:02;;;;;;;33.38;21.15;;;;;;;10.10;33.69;99872.09;343741;28;1397;-65
2022/03/03 00:13:14;;;;;;;34.47;20.65;;;;;;;10.08;33.95;99868.69;343452;28;1277;-65
2022/03/03 00:13:26;;;;;;;35.90;20.25;;;;;;;10.11;34.21;99871.22;343481;28;1406;-65
2022/03/03 00:13:38;;;;;;;36.65;20.77;;;;;;;10.16;34.10;99872.81;343443;28;1227;-65
2022/03/03 00:13:50;;;;;;;35.13;20.67;;;;;;;10.15;34.08;99870.25;341917;28;1099;-65
2022/03/03 00:14:02;;;;;;;34.00;20.65;;;;;;;10.18;34.14;99864.97;341459;28;1577;-65
2022/03/03 00:14:14;;;;;;;33.35;20.73;;;;;;;10.08;34.05;99868.69;341468;28;1892;-65
2022/03/03 00:14:26;;;;;;;32.63;20.55;;;;;;;10.09;34.05;99870.41;342074;28;1294;-65
2022/03/03 00:14:38;;;;;;;33.10;20.30;;;;;;;10.04;34.38;99869.69;342196;28;1627;-65
2022/03/03 00:14:50;;;;;;;34.22;20.08;;;;;;;9.98;34.21;99871.56;342120;28;1129;-65
2022/03/03 00:15:04;;;;;;;34.90;20.50;;;;;;;9.87;34.47;99870.97;342146;28;1077;-65
2022/03/03 00:15:17;;;;;;;36.18;21.78;;;;;;;9.86;34.55;99871.91;342286;28;1191;-65
2022/03/03 00:15:34;;;;;;;37.70;22.88;;;;;;;9.92;34.53;99869.13;342024;28;1790;-65
2022/03/03 00:15:46;;;;;;;37.42;22.08;;;;;;;9.92;34.79;99874.31;343184;28;1510;-65
2022/03/03 00:15:58;;;;;;;37.97;21.25;;;;;;;9.95;34.66;99869.03;342725;28;1452;-65
2022/03/03 00:16:10;;;;;;;38.22;20.98;;;;;;;9.95;34.51;99869.03;343708;28;1019;-65
2022/03/03 00:16:22;;;;;;;36.13;20.40;;;;;;;9.94;34.48;99872.53;343568;28;1289;-64
2022/03/03 00:16:34;;;;;;;33.58;20.75;;;;;;;9.97;34.50;99872.44;343594;28;1063;-65
2022/03/03 00:16:47;;;;;;;35.63;21.30;;;;;;;9.92;34.36;99874.31;343947;28;1226;-65
2022/03/03 00:16:59;;;;;;;36.33;21.25;;;;;;;9.95;34.71;99874.22;343470;28;1260;-65
2022/03/03 00:17:11;;;;;;;35.42;21.27;;;;;;;9.92;34.48;99873.44;343519;28;1055;-65
2022/03/03 00:17:23;;;;;;;38.45;21.30;;;;;;;9.94;34.41;99869.94;343279;28;1144;-64
2022/03/03 00:17:35;;;;;;;38.50;21.48;;;;;;;9.90;34.49;99865.72;342149;28;2059;-65
2022/03/03 00:17:48;;;;;;;37.00;21.92;;;;;;;9.94;35.00;99875.13;342596;28;1181;-65
2022/03/03 00:18:02;;;;;;;35.17;21.92;;;;;;;9.88;35.70;99871.81;343307;28;1443;-65
2022/03/03 00:18:14;;;;;;;35.65;22.25;;;;;;;9.99;35.53;99865.47;343470;28;1079;-65
2022/03/03 00:18:26;;;;;;;36.35;22.00;;;;;;;10.10;35.30;99870.38;343564;28;1559;-65
2022/03/03 00:18:37;;;;;;;35.53;21.70;;;;;;;10.17;35.36;99863.28;343902;28;1221;-64
2022/03/03 00:18:50;;;;;;;34.63;21.23;;;;;;;10.26;35.03;99867.34;343703;28;1087;-65
2022/03/03 00:19:03;;;;;;;34.30;20.80;;;;;;;10.33;35.22;99869.78;343785;28;1053;-65
2022/03/03 00:19:15;;;;;;;36.17;20.92;;;;;;;10.39;34.80;99869.59;343802;28;1111;-65
2022/03/03 00:19:27;;;;;;;35.97;20.95;;;;;;;10.46;34.67;99874.63;343636;28;1272;-65
2022/03/03 00:19:40;;;;;;;36.53;21.77;;;;;;;10.53;34.60;99865.75;343103;28;1453;-65
2022/03/03 00:19:52;;;;;;;35.63;21.58;;;;;;;10.59;34.48;99865.59;343553;28;1624;-65
2022/03/03 00:20:05;;;;;;;34.45;20.75;;;;;;;10.62;34.36;99864.63;343537;28;1074;-67
2022/03/03 00:20:17;;;;;;;33.72;20.10;;;;;;;10.68;34.38;99867.06;343574;28;1715;-65
2022/03/03 00:20:29;;;;;;;32.85;20.00;;;;;;;10.72;34.29;99864.31;343711;28;1323;-65
2022/03/03 00:20:41;;;;;;;33.90;19.40;;;;;;;10.78;34.36;99866.75;343977;28;1209;-65
2022/03/03 00:20:53;;;;;;;34.83;19.58;;;;;;;10.82;34.54;99871.84;343727;28;1078;-66
2022/03/03 00:21:05;;;;;;;35.45;20.30;;;;;;;10.86;34.08;99868.25;343884;28;1052;-65
2022/03/03 00:21:18;;;;;;;36.38;20.85;;;;;;;10.85;34.10;99871.75;343628;28;1496;-66
2022/03/03 00:21:30;;;;;;;36.45;22.35;;;;;;;10.82;34.28;99869.25;343635;28;1318;-65
2022/03/03 00:21:42;;;;;;;34.53;22.15;;;;;;;10.74;33.66;99865.09;343712;28;1637;-66
2022/03/03 00:21:54;;;;;;;32.60;20.63;;;;;;;10.76;34.41;99865.06;343614;28;2022;-65
2022/03/03 00:22:06;;;;;;;32.50;19.17;;;;;;;10.69;34.29;99864.41;343494;28;1046;-66
2022/03/03 00:22:18;;;;;;;35.40;19.80;;;;;;;10.73;34.26;99866.03;343480;28;1340;-65
2022/03/03 00:22:30;;;;;;;35.92;19.58;;;;;;;10.76;34.38;99865.06;343441;28;1891;-66
2022/03/03 00:22:44;;;;;;;34.33;19.48;;;;;;;10.78;34.55;99871.94;343399;28;1174;-65
2022/03/03 00:22:56;;;;;;;34.92;20.20;;;;;;;10.56;34.79;99870.84;342383;28;1268;-65
2022/03/03 00:23:08;;;;;;;36.92;21.50;;;;;;;10.49;35.12;99859.78;342145;28;1027;-66
2022/03/03 00:23:20;;;;;;;36.42;22.55;;;;;;;10.38;35.46;99867.91;342273;28;1260;-65
2022/03/03 00:23:33;;;;;;;35.63;21.42;;;;;;;10.30;35.69;99872.47;342368;28;1027;-65
2022/03/03 00:23:45;;;;;;;35.63;20.92;;;;;;;10.25;35.45;99871.69;341807;28;1267;-64
2022/03/03 00:23:57;;;;;;;37.10;21.00;;;;;;;10.10;36.05;99866.91;342028;28;1040;-66
2022/03/03 00:24:09;;;;;;;37.03;20.80;;;;;;;10.07;36.07;99867.00;342109;28;1470;-65
2022/03/03 00:24:21;;;;;;;35.97;21.35;;;;;;;10.06;35.98;99867.91;342407;28;1769;-66
2022/03/03 00:24:33;;;;;;;34.95;21.63;;;;;;;10.06;36.15;99873.09;343478;28;1284;-65
2022/03/03 00:24:45;;;;;;;37.30;22.52;;;;;;;9.92;36.49;99869.13;343513;28;1066;-66
2022/03/03 00:24:57;;;;;;;38.53;22.77;;;;;;;9.87;36.59;99867.53;343426;28;1025;-65
2022/03/03 00:25:09;;;;;;;38.75;22.50;;;;;;;9.58;36.68;99870.00;343406;28;1159;-65
2022/03/03 00:25:23;;;;;;;35.45;20.80;;;;;;;9.66;36.86;99868.94;343045;28;1403;-65
2022/03/03 00:25:35;;;;;;;35.85;21.10;;;;;;;9.75;36.44;99866.13;343109;28;1237;-65
2022/03/03 00:25:47;;;;;;;36.42;21.13;;;;;;;9.76;36.62;99862.66;342129;28;1325;-65
2022/03/03 00:25:59;;;;;;;39.47;22.35;;;;;;;9.79;36.81;99870.34;342291;28;1089;-65
2022/03/03 00:26:11;;;;;;;39.92;22.70;;;;;;;9.74;37.10;99869.63;343526;28;1109;-65
2022/03/03 00:26:23;;;;;;;37.08;21.95;;;;;;;9.65;37.13;99869.84;343189;28;1078;-65
2022/03/03 00:26:35;;;;;;;34.10;21.05;;;;;;;9.56;37.39;99869.19;342522;28;1070;-65
2022/03/03 00:26:47;;;;;;;34.83;20.67;;;;;;;9.66;36.90;99868.94;342509;28;1279;-65
2022/03/03 00:26:59;;;;;;;35.67;21.05;;;;;;;9.59;36.70;99863.06;342628;28;1408;-65
2022/03/03 00:27:12;;;;;;;34.35;20.65;;;;;;;9.42;37.01;99863.47;342631;28;1178;-65
2022/03/03 00:27:24;;;;;;;34.72;20.73;;;;;;;9.52;37.12;99870.16;342972;28;1176;-65
2022/03/03 00:27:36;;;;;;;37.08;21.48;;;;;;;9.55;36.89;99869.22;343888;28;1047;-65
2022/03/03 00:27:48;;;;;;;39.13;22.90;;;;;;;9.56;36.60;99866.59;343645;28;1616;-65
2022/03/03 00:28:04;;;;;;;37.70;23.00;;;;;;;9.60;36.48;99872.56;343577;28;1043;-66
2022/03/03 00:28:16;;;;;;;34.13;21.45;;;;;;;9.73;36.49;99862.72;343538;28;1055;-66
2022/03/03 00:28:28;;;;;;;35.78;21.48;;;;;;;9.89;36.19;99865.75;343188;28;1260;-65
2022/03/03 00:28:40;;;;;;;37.80;21.83;;;;;;;9.85;35.73;99856.34;343653;28;957;-65
2022/03/03 00:28:52;;;;;;;36.78;21.58;;;;;;;9.84;35.53;99858.09;343811;28;1078;-65
2022/03/03 00:29:05;;;;;;;35.13;21.33;;;;;;;9.84;35.76;99860.69;343745;28;1299;-65
2022/03/03 00:29:17;;;;;;;36.97;22.10;;;;;;;9.90;35.38;99860.53;343612;28;1287;-65
2022/03/03 00:29:29;;;;;;;38.20;23.25;;;;;;;9.87;35.57;99859.75;343499;28;1199;-65
2022/03/03 00:29:41;;;;;;;37.22;23.48;;;;;;;9.92;35.21;99863.94;343777;28;1071;-64
2022/03/03 00:29:53;;;;;;;35.95;21.92;;;;;;;10.00;35.24;99862.00;343469;28;1067;-65
2022/03/03 00:30:06;;;;;;;35.38;21.00;;;;;;;9.95;35.28;99858.66;343635;28;1083;-65
2022/03/03 00:30:18;;;;;;;34.97;20.50;;;;;;;9.92;35.22;99858.75;343624;28;1332;-65
2022/03/03 00:30:30;;;;;;;35.25;20.75;;;;;;;10.02;35.11;99861.09;343637;28;1127;-65
2022/03/03 00:30:42;;;;;;;35.17;20.65;;;;;;;10.02;35.09;99858.47;343403;28;1339;-64
2022/03/03 00:30:54;;;;;;;34.42;21.17;;;;;;;9.97;35.09;99862.06;343637;28;1250;-64
2022/03/03 00:31:07;;;;;;;36.50;22.08;;;;;;;10.06;35.44;99860.09;342369;28;1047;-65
2022/03/03 00:31:19;;;;;;;37.78;22.40;;;;;;;10.08;35.20;99858.31;342238;28;1258;-65
2022/03/03 00:31:31;;;;;;;36.60;21.63;;;;;;;10.07;35.01;99861.81;342147;28;1075;-65
2022/03/03 00:31:43;;;;;;;34.60;21.00;;;;;;;10.03;35.05;99858.44;342294;28;1055;-65
2022/03/03 00:31:57;;;;;;;34.83;20.58;;;;;;;10.11;35.11;99858.25;341959;28;1080;-65
2022/03/03 00:32:09;;;;;;;35.97;21.55;;;;;;;10.05;35.04;99861.84;342036;28;1203;-64
2022/03/03 00:32:21;;;;;;;35.80;22.40;;;;;;;10.00;34.95;99854.19;340728;29;1035;-65
2022/03/03 00:32:40;;;;;;;35.75;21.80;;;;;;;10.09;34.96;99860.03;341017;28;1282;-65
2022/03/03 00:32:52;;;;;;;35.17;20.27;;;;;;;9.96;34.82;99854.31;341995;28;1243;-65
2022/03/03 00:33:05;;;;;;;35.08;20.65;;;;;;;9.99;35.04;99860.28;342062;28;1012;-64
2022/03/03 00:33:17;;;;;;;34.80;20.55;;;;;;;9.96;34.95;99854.31;342185;28;1101;-65
2022/03/03 00:33:29;;;;;;;34.38;20.60;;;;;;;10.00;34.87;99862.00;342252;28;1103;-65
2022/03/03 00:33:41;;;;;;;33.63;20.00;;;;;;;9.96;34.72;99855.19;342086;28;1019;-65
2022/03/03 00:33:53;;;;;;;34.67;20.00;;;;;;;9.98;35.10;99857.75;341823;28;1068;-64
2022/03/03 00:34:05;;;;;;;35.08;20.77;;;;;;;9.92;34.96;99860.47;342222;28;1731;-65
2022/03/03 00:34:17;;;;;;;35.95;21.90;;;;;;;9.94;34.96;99862.16;342910;28;1418;-65
2022/03/03 00:34:29;;;;;;;38.08;22.75;;;;;;;9.98;34.87;99855.97;343739;28;1102;-65
2022/03/03 00:34:41;;;;;;;37.08;21.90;;;;;;;9.93;34.95;99862.19;343663;28;1042;-66
2022/03/03 00:34:53;;;;;;;37.33;21.27;;;;;;;9.88;34.94;99862.31;343601;28;1078;-64
2022/03/03 00:35:06;;;;;;;36.45;21.35;;;;;;;9.80;34.83;99861.66;343621;28;1093;-65
2022/03/03 00:35:18;;;;;;;35.88;21.60;;;;;;;9.83;34.99;99866.75;343629;28;1322;-66
2022/03/03 00:35:30;;;;;;;36.63;21.75;;;;;;;9.86;34.74;99860.63;342736;28;1665;-66
2022/03/03 00:35:42;;;;;;;35.97;21.38;;;;;;;9.80;34.96;99859.91;342139;28;1251;-66
2022/03/03 00:35:54;;;;;;;34.17;20.48;;;;;;;9.78;34.97;99866.06;342959;28;1215;-65
2022/03/03 00:36:06;;;;;;;33.67;20.25;;;;;;;9.87;34.99;99859.75;343654;28;1107;-66
2022/03/03 00:36:18;;;;;;;32.53;20.52;;;;;;;9.81;35.03;99858.16;343555;28;1859;-65
2022/03/03 00:36:30;;;;;;;36.20;22.35;;;;;;;9.85;34.90;99861.53;342153;28;1562;-66
2022/03/03 00:36:43;;;;;;;36.72;22.65;;;;;;;9.85;35.28;99861.53;342274;28;1070;-66
2022/03/03 00:36:55;;;;;;;34.65;21.35;;;;;;;9.78;34.75;99866.91;342071;28;1070;-65
2022/03/03 00:37:07;;;;;;;34.58;20.63;;;;;;;9.82;35.01;99857.28;342229;28;1060;-65
2022/03/03 00:37:19;;;;;;;34.95;20.30;;;;;;;9.81;34.86;99863.34;342355;28;1254;-64
2022/03/03 00:37:31;;;;;;;34.88;20.38;;;;;;;9.79;34.99;99857.34;344053;28;1173;-66
2022/03/03 00:37:43;;;;;;;34.83;20.92;;;;;;;9.93;34.83;99868.22;345013;28;1272;-65
2022/03/03 00:37:55;;;;;;;34.78;22.00;;;;;;;10.05;34.64;99861.00;343516;28;1489;-66
2022/03/03 00:38:08;;;;;;;33.97;21.75;;;;;;;9.99;34.60;99860.28;343606;28;1067;-66
2022/03/03 00:38:20;;;;;;;34.13;20.77;;;;;;;10.02;34.53;99858.47;343433;28;1099;-66
2022/03/03 00:38:32;;;;;;;34.03;20.45;;;;;;;10.00;34.73;99864.59;342474;28;1378;-65
2022/03/03 00:38:44;;;;;;;35.33;20.58;;;;;;;10.00;34.51;99866.34;342216;28;1088;-65
2022/03/03 00:38:56;;;;;;;36.47;20.83;;;;;;;10.05;34.63;99861.00;342260;28;1101;-66
2022/03/03 00:39:09;;;;;;;37.97;21.75;;;;;;;9.93;34.49;99857.84;342602;28;1265;-66
2022/03/03 00:39:21;;;;;;;37.97;22.33;;;;;;;9.89;34.45;99858.81;343625;28;1265;-65
2022/03/03 00:39:33;;;;;;;36.50;22.00;;;;;;;9.88;34.83;99859.72;343488;28;1078;-66
2022/03/03 00:39:45;;;;;;;36.72;21.58;;;;;;;9.88;34.77;99859.72;343540;28;1155;-65
2022/03/03 00:39:57;;;;;;;36.38;21.52;;;;;;;9.93;34.53;99852.66;343452;28;1209;-66
2022/03/03 00:40:10;;;;;;;35.47;21.60;;;;;;;9.93;34.67;99855.25;343708;28;1038;-66
2022/03/03 00:40:25;;;;;;;36.83;21.73;;;;;;;9.82;34.60;99857.28;343658;28;1192;-65
2022/03/03 00:40:37;;;;;;;38.80;22.15;;;;;;;9.72;34.99;99850.63;343707;28;1051;-66
2022/03/03 00:40:49;;;;;;;37.97;22.77;;;;;;;9.75;34.89;99850.53;343644;28;1234;-65
2022/03/03 00:41:01;;;;;;;35.03;21.98;;;;;;;9.80;34.91;99853.88;343474;28;1075;-65
2022/03/03 00:41:13;;;;;;;34.22;21.00;;;;;;;9.84;34.95;99855.50;343453;28;1032;-66
2022/03/03 00:41:25;;;;;;;35.20;21.17;;;;;;;9.89;34.94;99853.63;343592;28;1067;-65
2022/03/03 00:41:37;;;;;;;35.60;21.67;;;;;;;9.85;34.75;99857.19;343499;28;1249;-65
2022/03/03 00:41:50;;;;;;;35.35;21.27;;;;;;;9.85;34.55;99854.59;343589;28;1051;-65
2022/03/03 00:42:03;;;;;;;34.20;20.85;;;;;;;9.87;34.62;99854.56;343518;28;1060;-66
2022/03/03 00:42:15;;;;;;;33.50;21.02;;;;;;;9.88;35.15;99851.06;343584;28;1019;-65
2022/03/03 00:42:27;;;;;;;34.30;21.83;;;;;;;9.83;34.79;99858.97;343517;28;1054;-65
2022/03/03 00:42:39;;;;;;;34.80;22.05;;;;;;;9.81;35.04;99855.56;343604;28;1160;-65
2022/03/03 00:42:51;;;;;;;35.88;21.60;;;;;;;9.77;34.98;99849.59;343558;28;1043;-65
2022/03/03 00:43:06;;;;;;;34.35;20.02;;;;;;;9.73;34.79;99854.91;343518;28;1091;-64
2022/03/03 00:43:19;;;;;;;38.00;20.10;;;;;;;9.72;34.95;99848.03;343606;28;1320;-65
2022/03/03 00:43:31;;;;;;;37.85;20.17;;;;;;;9.74;35.00;99846.25;343541;28;1090;-65
2022/03/03 00:43:43;;;;;;;34.22;20.83;;;;;;;9.69;34.81;99848.09;343438;28;1022;-64
2022/03/03 00:43:56;;;;;;;33.38;20.95;;;;;;;9.73;35.21;99847.97;343809;28;1269;-65
2022/03/03 00:44:09;;;;;;;35.30;21.10;;;;;;;9.73;34.95;99845.38;343051;28;1193;-65
2022/03/03 00:44:22;;;;;;;36.00;20.15;;;;;;;9.80;35.09;99848.69;342128;28;1906;-66
2022/03/03 00:44:34;;;;;;;34.65;19.85;;;;;;;9.71;35.02;99844.56;341886;28;1250;-65
2022/03/03 00:44:47;;;;;;;33.85;19.95;;;;;;;9.74;34.99;99844.50;342001;28;1069;-66
2022/03/03 00:44:59;;;;;;;35.00;20.02;;;;;;;9.72;35.15;99846.28;342114;28;1273;-66
2022/03/03 00:45:11;;;;;;;35.95;21.38;;;;;;;9.73;35.05;99847.13;340681;29;1032;-65
2022/03/03 00:45:23;;;;;;;34.63;21.55;;;;;;;9.70;34.63;99847.19;340421;29;1462;-65
2022/03/03 00:45:36;;;;;;;34.58;21.40;;;;;;;9.65;34.79;99849.06;340903;28;1572;-65
2022/03/03 00:45:48;;;;;;;33.58;20.75;;;;;;;9.66;34.83;99850.75;340807;28;1267;-66
2022/03/03 00:46:00;;;;;;;33.83;20.15;;;;;;;9.57;35.00;99842.31;340773;29;1310;-65
2022/03/03 00:46:15;;;;;;;35.80;20.55;;;;;;;9.63;34.80;99846.50;341667;28;1293;-66
2022/03/03 00:46:28;;;;;;;35.90;20.80;;;;;;;9.63;34.90;99850.84;343106;28;1400;-66
2022/03/03 00:46:40;;;;;;;35.10;20.73;;;;;;;9.54;34.79;99845.00;343488;28;1467;-65
2022/03/03 00:46:52;;;;;;;35.17;21.75;;;;;;;9.64;34.78;99849.94;343669;28;1013;-65
2022/03/03 00:47:04;;;;;;;35.03;21.38;;;;;;;9.58;34.71;99849.22;343675;28;1629;-65
2022/03/03 00:47:16;;;;;;;34.85;20.88;;;;;;;9.63;34.88;99848.25;343325;28;1580;-65
2022/03/03 00:47:28;;;;;;;33.35;20.08;;;;;;;9.63;34.93;99843.06;343483;28;1336;-65
2022/03/03 00:47:40;;;;;;;34.47;20.58;;;;;;;9.59;35.11;99850.91;343931;28;1225;-66
2022/03/03 00:47:53;;;;;;;34.28;20.30;;;;;;;9.58;35.22;99859.63;343925;28;1062;-66
2022/03/03 00:48:05;;;;;;;35.83;20.42;;;;;;;9.63;34.85;99850.84;342548;28;1105;-66
2022/03/03 00:48:17;;;;;;;35.90;20.63;;;;;;;9.70;34.76;99844.59;342253;28;1015;-65
2022/03/03 00:48:29;;;;;;;35.85;20.25;;;;;;;9.60;35.07;99842.25;343376;28;1241;-65
2022/03/03 00:48:41;;;;;;;35.05;19.90;;;;;;;9.63;34.85;99849.09;343947;28;1203;-64
2022/03/03 00:48:55;;;;;;;36.97;20.50;;;;;;;9.66;34.83;99850.75;343795;28;1266;-64
2022/03/03 00:49:07;;;;;;;36.30;20.20;;;;;;;9.68;34.78;99851.56;343654;28;1007;-65
2022/03/03 00:49:19;;;;;;;36.55;20.30;;;;;;;9.69;35.45;99850.69;343581;28;1050;-65
2022/03/03 00:49:31;;;;;;;36.63;20.85;;;;;;;9.69;35.59;99850.69;343570;28;1055;-65
2022/03/03 00:49:43;;;;;;;37.05;21.05;;;;;;;9.75;35.60;99845.34;343487;28;1039;-65
2022/03/03 00:49:55;;;;;;;34.05;20.45;;;;;;;9.79;35.45;99852.16;343491;28;1043;-65
2022/03/03 00:50:08;;;;;;;34.55;20.33;;;;;;;9.80;35.90;99853.88;343402;28;1126;-65
2022/03/03 00:50:20;;;;;;;34.17;19.80;;;;;;;9.86;35.59;99852.84;343530;28;1152;-65
2022/03/03 00:50:32;;;;;;;34.08;19.75;;;;;;;9.88;35.87;99851.94;343477;28;1214;-66
2022/03/03 00:50:45;;;;;;;35.67;20.15;;;;;;;9.94;35.44;99851.75;343598;28;1205;-65
2022/03/03 00:50:57;;;;;;;34.33;20.23;;;;;;;10.00;35.46;99849.00;343474;28;1177;-66
2022/03/03 00:51:09;;;;;;;31.60;19.45;;;;;;;10.03;35.30;99853.25;343593;28;1112;-66
2022/03/03 00:51:22;;;;;;;31.30;20.13;;;;;;;9.97;35.93;99856.88;343547;28;1106;-65
2022/03/03 00:51:34;;;;;;;32.35;20.80;;;;;;;10.00;35.83;99851.59;343484;28;1079;-65
2022/03/03 00:51:46;;;;;;;33.17;20.73;;;;;;;10.01;35.49;99852.44;343644;28;1256;-65
2022/03/03 00:51:58;;;;;;;33.55;20.00;;;;;;;10.02;35.45;99854.16;343653;28;1254;-65
2022/03/03 00:52:10;;;;;;;31.92;19.63;;;;;;;10.03;35.54;99855.00;343434;28;1458;-65
2022/03/03 00:52:22;;;;;;;30.38;19.48;;;;;;;10.02;35.60;99854.16;343685;28;1149;-66
2022/03/03 00:52:34;;;;;;;31.73;19.73;;;;;;;10.00;35.56;99850.75;343551;28;1050;-65
2022/03/03 00:52:46;;;;;;;34.28;20.30;;;;;;;9.86;35.98;99852.84;343690;28;1329;-66
2022/03/03 00:52:58;;;;;;;32.80;19.35;;;;;;;9.85;35.84;99854.59;343738;28;1104;-66
2022/03/03 00:53:10;;;;;;;32.38;18.90;;;;;;;9.90;35.69;99852.75;343751;28;1094;-66
2022/03/03 00:53:23;;;;;;;30.58;18.75;;;;;;;9.93;35.93;99855.25;343537;28;1067;-65
2022/03/03 00:53:36;;;;;;;30.56;19.02;;;;;;;9.88;35.83;99851.94;343403;28;1282;-66
2022/03/03 00:53:52;;;;;;;32.25;19.20;;;;;;;9.87;35.99;99858.00;343358;28;1233;-65
2022/03/03 00:54:04;;;;;;;32.60;19.70;;;;;;;9.93;36.13;99860.44;343695;28;1064;-65
2022/03/03 00:54:16;;;;;;;32.42;20.33;;;;;;;9.96;36.13;99859.50;343673;28;1295;-65
2022/03/03 00:54:28;;;;;;;31.73;20.45;;;;;;;9.99;35.81;99862.03;343544;28;1015;-64
2022/03/03 00:54:40;;;;;;;32.28;20.02;;;;;;;9.96;35.94;99857.78;343714;28;1087;-66
2022/03/03 00:54:54;;;;;;;32.70;19.73;;;;;;;9.87;36.37;99855.41;343718;28;1260;-65
2022/03/03 00:55:07;;;;;;;33.67;20.02;;;;;;;9.79;36.77;99857.34;343676;28;1118;-66
2022/03/03 00:55:20;;;;;;;31.98;19.80;;;;;;;9.69;36.89;99855.88;343809;28;1270;-65
2022/03/03 00:55:32;;;;;;;31.33;19.40;;;;;;;9.78;36.78;99860.84;343341;28;1518;-64
2022/03/03 00:55:44;;;;;;;32.85;19.77;;;;;;;9.89;36.46;99853.63;343516;28;1297;-64
2022/03/03 00:55:56;;;;;;;33.90;20.23;;;;;;;9.86;36.39;99858.91;344240;28;1634;-64
2022/03/03 00:56:08;;;;;;;34.10;20.55;;;;;;;9.73;36.46;99854.91;344982;28;1041;-64
2022/03/03 00:56:20;;;;;;;34.15;20.83;;;;;;;9.68;36.94;99864.56;342200;28;1144;-64
2022/03/03 00:56:33;;;;;;;32.97;20.40;;;;;;;9.56;37.12;99856.22;338481;29;1067;-64
2022/03/03 00:56:46;;;;;;;33.00;20.65;;;;;;;9.48;37.21;99862.50;338536;29;1047;-65
2022/03/03 00:56:59;;;;;;;32.65;21.17;;;;;;;9.48;37.45;99863.34;338821;29;1424;-65
2022/03/03 00:57:11;;;;;;;33.03;20.65;;;;;;;9.35;37.20;99861.91;339684;29;1061;-65
2022/03/03 00:57:23;;;;;;;33.38;20.10;;;;;;;9.37;37.33;99860.13;339923;29;1315;-65
2022/03/03 00:57:35;;;;;;;33.53;19.60;;;;;;;9.34;37.74;99860.22;340952;29;1165;-65
2022/03/03 00:57:47;;;;;;;33.25;19.25;;;;;;;9.35;37.52;99857.56;340982;29;1097;-64
2022/03/03 00:58:00;;;;;;;32.95;19.17;;;;;;;9.37;37.74;99866.16;341250;29;1203;-64
2022/03/03 00:58:12;;;;;;;32.55;19.77;;;;;;;9.26;37.78;99864.75;341102;29;1024;-64
2022/03/03 00:58:24;;;;;;;34.10;20.48;;;;;;;9.29;37.95;99867.25;341172;28;1322;-64
2022/03/03 00:58:36;;;;;;;33.25;20.38;;;;;;;9.38;37.51;99869.63;343122;28;1284;-64